Doniyor Tukhtasinov

Baş Scout - AGMK
19 Kas 2028
Pazar
İşlem

Kişilik

Uyum (20) Hırs (3) Tartışma (19) Sadakat (16) Baskı (11) Profesyonellik (1) Sportmenlik (1) Mizaç (12)

Profil

Antrenörlük Tarzı Demokratik
Lisans Kıtasal Pro
Kararlılık 4
İnsan Yönetimi 5
Motivasyon 7
Disiplin 9
İş Memnuniyeti
100%
Yorgunluk
0%
Görev Baş Scout
Maaş 22.3K h/h
Sözleşme 14.03.2029

Performans

Davranış İyi
Antrenman Etkinliği
18%
Oyuncu Gelişimi
45%
Sakatlık Önleme
15%
Taktik Uygulama
20%

Son Olaylar

Oyuncu izleme toplantısına katıldı 7gün önce
Oyuncu izleme toplantısına katıldı 14gün önce
Oyuncu izleme toplantısına katıldı 21gün önce
Oyuncu izleme toplantısına katıldı 28gün önce
Oyuncu izleme toplantısına katıldı 35gün önce
Oyuncu izleme toplantısına katıldı 42gün önce
Oyuncu izleme toplantısına katıldı 42gün önce
Oyuncu izleme toplantısına katıldı 49gün önce

Şu Anda İzliyor

165
Oyuncu Kulüp Durum Yetenek Güven İzlendi Son Gözlem Son Oy
Ilja Zhbanov Cobresal Reddedildi 90 / 94 93% 1 01.06.2028 -
Denis M. Kovalevich Dinamo Brest Aktif 95 / 106 40% 6 30.01.2028 -
Andrey Solovey Slavia Mozyr Aktif 85 / 97 40% 3 30.01.2028 -
Razhab Magomedov Dinamo Makhachkala Aktif 100 / 99 40% 1 28.01.2028 -
Omar Popov Dinamo St Petersburg Aktif 74 / 82 40% 1 28.01.2028 -
François Kamano Sochi Aktif 119 / 113 40% 3 26.01.2028 -
Daniil Arsentjev Orel Aktif 63 / 72 40% 1 24.01.2028 -
Fortune Bassey Bunyodkor Aktif 108 / 104 40% 9 21.01.2028 -
Axel Gnapi Dable Fakel Aktif 88 / 109 40% 2 21.01.2028 -
Soslan Lysenko Spartak Nalchik Aktif 86 / 71 40% 4 20.01.2028 -
Kirill Tsepenkov Dnepr Mogilev Aktif 91 / 97 40% 6 20.01.2028 -
Serder Serderov Dinamo Makhachkala Aktif 114 / 90 40% 3 19.01.2028 -
Alexey Antilevskiy Slavia Mozyr Aktif 92 / 86 40% 10 18.01.2028 -
Nuriddin Nuriddinov Mashal Aktif 89 / 79 40% 1 18.01.2028 -
Franco Ayunta Temperley Aktif 111 / 115 40% 1 16.01.2028 -
Matías Samaniego Talleres Aktif 97 / 89 40% 3 15.01.2028 -
Magomed Nasibov Pobeda Aktif 84 / 95 40% 4 14.01.2028 -
Said Aliev Rotor Aktif 96 / 107 40% 4 14.01.2028 -
Juan David Rueda Alianza Petrolera Aktif 99 / 119 40% 4 12.01.2028 -
Anton Fase PSIM Aktif 111 / 103 40% 2 12.01.2028 -
Daouda Natama Minsk Aktif 106 / 94 40% 3 11.01.2028 -
Ilja Rubtsov Chaika Aktif 86 / 93 40% 1 11.01.2028 -
Vladislav Yakovlev Volga Aktif 97 / 103 40% 2 30.12.2027 -
Dmitriy Vashkevich Dinamo Brest Aktif 99 / 85 40% 2 30.12.2027 -
Ljupce Doriev Sogdiana Aktif 109 / 113 40% 5 29.12.2027 -
Riquelme Madura United Aktif 102 / 98 40% 3 29.12.2027 -
Anton Betyuzhnov Dinamo Vologda Aktif 87 / 81 40% 1 27.12.2027 -
Alexandr Yushin Torpedo Moscow Aktif 91 / 108 40% 6 25.12.2027 -
Ilja Gruznov Khimik Aktif 94 / 82 40% 3 25.12.2027 -
Júnior Brandão Madura United Aktif 103 / 105 40% 4 25.12.2027 -
Oleksiy Shchebetun Qizilqum Aktif 101 / 100 40% 2 24.12.2027 -
Kamran Aliev SKA Khabarovsk Aktif 98 / 96 40% 5 23.12.2027 -
Dejan Tumbas Persis Aktif 95 / 95 40% 3 21.12.2027 -
Vladislav Fedosov Slutsk Aktif 85 / 91 40% 3 20.12.2027 -
Nermin Haljeta PSIM Aktif 114 / 105 40% 3 20.12.2027 -
Dmitry Kamenschikov Chernomorets Aktif 107 / 94 40% 1 20.12.2027 -
Alexandr Butko Isloch Aktif 80 / 84 40% 1 18.12.2027 -
Luka Đorđević Sogdiana Aktif 95 / 89 40% 3 17.12.2027 -
Martin Boakye Andijon Aktif 104 / 109 40% 1 17.12.2027 -
Uilliam Barros Persib Aktif 100 / 99 40% 2 15.12.2027 -
Aleksej Golijanin Sokol Aktif 103 / 81 40% 2 14.12.2027 -
Karen Vardanyan Dinamo Minsk Aktif 99 / 99 40% 2 14.12.2027 -
Maxim Kutovoy Salyut Aktif 102 / 78 40% 2 13.12.2027 -
Bobur Abdiholiqov Nasaf Aktif 120 / 109 40% 2 13.12.2027 -
Daniel Barrea Godoy Cruz Aktif 138 / 123 40% 1 09.12.2027 -
Timur Masharipov Obod Aktif 105 / 95 40% 2 08.12.2027 -
Alexandre Ramalingom Persita Aktif 112 / 106 40% 3 06.12.2027 -
Milan Ristovski Bhayangkara Presisi Aktif 110 / 113 40% 6 05.12.2027 -
Luca Franco Arsenal Aktif 97 / 101 40% 3 05.12.2027 -
Jort van der Sande Bali United Aktif 113 / 95 40% 4 30.11.2027 -
Diego Campos Bali United Aktif 116 / 109 40% 5 29.11.2027 -
Steven Alfred Torpedo-BelAZ Aktif 115 / 109 40% 9 27.11.2027 -
Ilja Stefanovich Leningradets Aktif 106 / 92 40% 1 27.11.2027 -
Alexis Gómez Persijap Aktif 91 / 98 40% 3 21.11.2027 -
Amir Nematov Obod Aktif 85 / 95 40% 6 18.11.2027 -
Ilya Tishurov Osipovichi Aktif 76 / 71 40% 2 18.11.2027 -
Yusuf Otubanjo Nasaf Aktif 114 / 111 40% 3 17.11.2027 -
Valdeci Arema Aktif 100 / 105 40% 2 15.11.2027 -
Sudi Abdallah Persijap Aktif 99 / 100 40% 2 15.11.2027 -
Pavel Savitskiy Neman Aktif 93 / 86 40% 5 14.11.2027 -
Zoran Marušić Neftchi Aktif 101 / 106 40% 3 13.11.2027 -
Evgeniy Shevchenko Slavia Mozyr Aktif 89 / 100 40% 3 11.11.2027 -
Maxim Maximov Slavia Mozyr Aktif 88 / 85 40% 3 06.11.2027 -
Danilo Santacruz Madura United Aktif 107 / 108 40% 3 04.11.2027 -
Kirill Kirilenko Dnepr Mogilev Aktif 81 / 88 40% 3 04.11.2027 -
Sheriddin Boboev PSM Aktif 101 / 99 40% 1 03.11.2027 -
Koldo Obieta Borneo Aktif 100 / 103 40% 1 03.11.2027 -
Igor Monich Naftan Aktif 83 / 77 40% 3 02.11.2027 -
Hleb Shikavka Lokomotiv Gomel Aktif 72 / 69 40% 1 01.11.2027 -
Shohnazar Norbekov Mashal Aktif 97 / 88 40% 3 30.10.2027 -
Kirill Zabelin Dnepr Mogilev Aktif 80 / 94 40% 2 26.10.2027 -
Dominik Begić Bukhara Aktif 93 / 100 40% 2 24.10.2027 -
Adrián Dalmau PSIM Aktif 110 / 111 40% 1 24.10.2027 -
Luka Čumić PSM Aktif 103 / 101 40% 1 22.10.2027 -
Vladislav Lozhkin Dinamo Brest Aktif 104 / 101 40% 3 19.10.2027 -
Yehor Kondratiuk Kokand 1912 Aktif 90 / 94 40% 1 19.10.2027 -
Timofey Simanenka Gomel Aktif 88 / 100 40% 2 10.10.2027 -
Sergio Castel Persik Aktif 112 / 114 40% 3 09.10.2027 -
Andrew Jung Persib Aktif 108 / 103 40% 1 22.09.2027 -
Vlatko Stojanovski Mashal Aktif 88 / 94 40% 1 22.09.2027 -
Flamarion Pakhtakor Aktif 125 / 120 40% 2 20.09.2027 -
Edmilson Kairat Aktif 113 / 115 40% 2 17.09.2027 -
Gustavo Viera Cerro Largo Aktif 100 / 111 40% 2 14.09.2027 -
Ruslanbek Jiyanov Navbahor Aktif 125 / 123 40% 1 08.09.2027 -
Abylaikhan Zhūmabek Atyrau Aktif 107 / 99 40% 1 05.09.2027 -
Léo Natel Ordabasy Aktif 109 / 114 40% 3 04.09.2027 -
Kianz Froese Semen Padang Aktif 96 / 105 40% 2 21.08.2027 -
Prince Ukachukwu Irtysh Aktif 107 / 100 40% 1 13.08.2027 -
Alexander Jeremejeff Persija Aktif 120 / 120 40% 1 09.08.2027 -
Rubin Hebaj Tobol Aktif 113 / 108 40% 2 08.08.2027 -
Ramazan Kärimov Astana Aktif 98 / 97 40% 1 06.08.2027 -
Moustapha Djimet Dinamo Minsk Aktif 103 / 104 40% 2 01.08.2027 -
Nikita Golub Belshina Aktif 74 / 82 40% 1 01.08.2027 -
Josué Doké Narva Trans Aktif 69 / 75 40% 1 30.07.2027 -
Moussa Sidibé Bhayangkara Presisi Aktif 104 / 93 40% 1 26.07.2027 -
Aaron Olanare Atyrau Aktif 98 / 95 40% 1 25.07.2027 -
Roman Paparyga Qizilqum Aktif 101 / 93 40% 1 23.07.2027 -
Bjørn Johnsen Ordabasy Aktif 108 / 109 40% 1 20.07.2027 -
Fabio Morselli Alcione Milano Aktif 98 / 78 40% 1 17.07.2027 -
Andrey Okladnikov Yenisey Aktif 92 / 95 40% 2 15.07.2027 -
Amine Talal Tobol Aktif 111 / 99 40% 1 15.07.2027 -
Yordy Reyna Rodina Aktif 116 / 112 40% 3 14.07.2027 -
Georgy Gongadze Ufa Aktif 99 / 111 40% 1 12.07.2027 -
Amar Rahmanović Krylya Sovetov Aktif 104 / 112 40% 6 10.07.2027 -
Surkhaikhan Abdullaev KAMAZ Aktif 93 / 101 40% 2 05.07.2027 -
David Karaev KAMAZ Aktif 115 / 105 40% 1 03.07.2027 -
Nikita Simdyankin KDV Tomsk Aktif 87 / 90 40% 3 29.06.2027 -
Alexey Kashtanov Torpedo Moscow Aktif 121 / 97 40% 3 26.06.2027 -
Mikhail Gainov Dinamo Stavropol Aktif 70 / 89 40% 1 26.06.2027 -
Daniil Kondrakov KDV Tomsk Aktif 102 / 78 40% 3 24.06.2027 -
Alexandr Olenev Nart Aktif 100 / 90 40% 4 23.06.2027 -
Vitaly Dunay (Karpenko) Chaika Aktif 85 / 88 40% 2 22.06.2027 -
Chinonso Offor Baltika Aktif 119 / 107 40% 2 22.06.2027 -
Danil Akhatov Ufa Aktif 103 / 89 40% 3 18.06.2027 -
Migran Ageyan Ufa Aktif 106 / 100 40% 1 18.06.2027 -
Nikita Kireev Dinamo Vologda Aktif 71 / 85 40% 3 16.06.2027 -
Amur Kalmykov Spartak Kostroma Aktif 106 / 111 40% 2 13.06.2027 -
Dmitry Kuptsov Spartak Tambov Aktif 69 / 79 40% 1 13.06.2027 -
Daniil Agureev Amkar Aktif 92 / 94 40% 2 05.06.2027 -
Rashid Magomedov Neftekhimik Aktif 83 / 87 40% 1 05.06.2027 -
Nikolay Rybikov Dinamo St Petersburg Aktif 69 / 93 40% 2 30.05.2027 -
Petr Kosarevskiy Sibir Reddedildi 116 / 93 40% 2 30.05.2027 -
Vladimir Iljin Sochi Aktif 104 / 106 40% 2 28.05.2027 -
Stanislav Kleschuk Gomel Aktif 82 / 84 40% 2 24.05.2027 -
Joaquín Bigo Tristán Suárez Aktif 110 / 95 40% 2 20.05.2027 -
Anton Shitov Dinamo Vladivostok Aktif 81 / 81 40% 1 19.05.2027 -
Timur Kraikov Sokol Aktif 106 / 86 40% 2 18.05.2027 -
Vadim Uljanov Krylya Sovetov Aktif 107 / 98 40% 1 18.05.2027 -
Temirlan Anarbekov Kairat Aktif 122 / 113 40% 2 17.05.2027 -
Abduvohid Ne'matov Nasaf Aktif 131 / 124 40% 2 16.05.2027 -
Maxim Borisko CSKA Moscow Aktif 123 / 123 40% 1 16.05.2027 -
Alexandr Saplinov Volga Aktif 97 / 92 40% 2 15.05.2027 -
Maxim Shichanin Zenit Aktif 93 / 86 40% 2 12.05.2027 -
Islam Imamov SKA Khabarovsk Aktif 101 / 103 40% 2 12.05.2027 -
Vadim Averkiev Orel Aktif 99 / 80 40% 2 11.05.2027 -
Bogdan Ovsyannikov Orenburg Reddedildi 122 / 99 40% 1 09.05.2027 Daha Fazla Bilgi
Alexandr Ryabinkin Textilschik Reddedildi 97 / 92 40% 2 07.05.2027 Daha Fazla Bilgi
Daniil Ustimenko Tobol Aktif 116 / 101 40% 1 01.05.2027 -
Georgy Natabashvili Chernomorets Aktif 87 / 83 40% 1 28.04.2027 -
Vladimir Pavlov Saturn Aktif 88 / 87 40% 1 27.04.2027 -
Vladimir Tsapurin SKA Khabarovsk Aktif 71 / 70 40% 1 18.04.2027 -
Timur Melekestsev Arsenal Tula Aktif 81 / 84 40% 2 17.04.2027 -
Ivan Lomaev Ufa Aktif 116 / 119 40% 1 17.04.2027 -
Vladislav Yampolskiy Volgar Aktif 82 / 89 40% 1 17.04.2027 -
Nikita Pavlov Chaika Aktif 68 / 89 40% 1 16.04.2027 -
Dmitry Rebrov Volna Aktif 70 / 80 40% 1 16.04.2027 -
Ivan Gulko KAMAZ Aktif 94 / 76 40% 1 16.04.2027 -
Ruslan Apekov Torpedo Moscow Aktif 92 / 109 40% 2 13.04.2027 -
Rinat Shakerov Volga Aktif 85 / 84 40% 1 13.04.2027 -
David Byazrov Alania Aktif 81 / 88 40% 1 13.04.2027 -
Rostislav Soldatenko Torpedo Moscow Aktif 92 / 103 40% 1 12.04.2027 -
Daniil Konoplev Dinamo Bryansk Aktif 76 / 76 40% 1 26.03.2027 -
Evgeny Voronin Volga Aktif 91 / 89 40% 3 25.03.2027 -
Jacobo Alcalde SKA Khabarovsk Aktif 101 / 94 40% 1 15.03.2027 -
Paolo Yrizar Chernomorets Aktif 83 / 101 40% 1 14.03.2027 -
Alexey Skvortsov Aktif 96 / 73 40% 2 12.03.2027 -
David Davidyan Rotor Aktif 101 / 107 40% 1 05.03.2027 -
Timur Zhamaletdinov Arsenal Tula Aktif 93 / 92 40% 1 04.03.2027 -
Chinedu Geoffrey Krylya Sovetov Aktif 113 / 102 40% 2 28.02.2027 -
Mikhail Ignatov Sochi Aktif 113 / 112 40% 3 28.02.2027 -
Mohamed Konaté Akhmat Grozny Aktif 110 / 110 40% 1 24.02.2027 -
Merabi Uridia Fakel Aktif 118 / 105 40% 2 21.02.2027 -
Tenton Yenne Baltika Aktif 110 / 102 40% 1 16.02.2027 -
Alexandre Jesus Orenburg Aktif 106 / 119 40% 1 11.02.2027 -
Vyacheslav Grulev Nizhniy Novgorod Aktif 127 / 101 40% 1 10.02.2027 -